KMBL/MBL METAR and TAF weather

Enter ICAO airport designator
Station Type Date Time Source
KMBL METAR 2024/06/15 22:56 UTC NOAA

KMBL 152256Z AUTO 10006KT 10SM CLR 23/14 A3007 RMK AO2 SLP182 T02330139


Station Type Date Time Source
KMBL Decoded METAR 2024/06/15 22:56 UTC NOAA

Manistee, Manistee County-Blacker Airport, MI, United States (KMBL) 44-16N 086-15W
Jun 15, 2024 - 06:56 PM EDT / 2024.06.15 2256 UTC
Wind: from the E (100 degrees) at 7 MPH (6 KT):0
Visibility: 10 mile(s):0
Sky conditions: clear
Temperature: 73.9 F (23.3 C)
Dew Point: 57.0 F (13.9 C)
Relative Humidity: 55%
Pressure (altimeter): 30.07 in. Hg (1018 hPa)
ob: KMBL 152256Z AUTO 10006KT 10SM CLR 23/14 A3007 RMK AO2 SLP182 T02330139
cycle: 23

Station Type Date Time Source
KMBL TAF 2024/06/15 18:30 UTC NOAA